createdAt,value
2023-04-15T00:01:51.452Z,6.60
2023-04-15T00:04:20.786Z,6.60
2023-04-15T00:06:52.897Z,6.60
2023-04-15T00:09:20.918Z,6.60
2023-04-15T00:11:48.844Z,6.60
2023-04-15T00:14:16.628Z,6.60
2023-04-15T00:16:44.450Z,6.70
2023-04-15T00:19:12.258Z,6.70
2023-04-15T00:21:41.879Z,6.60
2023-04-15T00:24:09.641Z,6.60
2023-04-15T00:26:37.425Z,6.70
2023-04-15T00:29:05.222Z,6.70
2023-04-15T00:31:33.166Z,6.70
2023-04-15T00:34:02.366Z,6.70
2023-04-15T00:36:30.170Z,6.70
2023-04-15T00:38:59.441Z,6.70
2023-04-15T00:41:27.406Z,6.70
2023-04-15T00:43:55.341Z,6.70
2023-04-15T00:46:23.668Z,6.70
2023-04-15T00:48:52.800Z,6.70
2023-04-15T00:51:20.608Z,6.70
2023-04-15T00:53:48.396Z,6.70
2023-04-15T00:56:17.761Z,6.70
2023-04-15T00:58:45.559Z,6.70
2023-04-15T01:01:13.582Z,6.60
2023-04-15T01:03:41.668Z,6.70
2023-04-15T01:06:09.477Z,6.60
2023-04-15T01:08:37.245Z,6.60
2023-04-15T01:11:05.136Z,6.60
2023-04-15T01:13:35.176Z,6.60
2023-04-15T01:16:03.483Z,6.60
2023-04-15T01:18:31.958Z,6.60
2023-04-15T01:21:03.555Z,6.60
2023-04-15T01:23:31.501Z,6.60
2023-04-15T01:26:00.901Z,6.60
2023-04-15T01:28:28.838Z,6.60
2023-04-15T01:31:09.759Z,6.60
2023-04-15T01:33:37.900Z,6.60
2023-04-15T01:36:08.402Z,6.60
2023-04-15T01:38:36.515Z,6.50
2023-04-15T01:41:07.524Z,6.50
2023-04-15T01:43:36.026Z,6.50
2023-04-15T01:46:03.933Z,6.50
2023-04-15T01:48:32.209Z,6.50
2023-04-15T01:51:00.224Z,6.50
2023-04-15T01:53:28.268Z,6.50
2023-04-15T01:55:56.184Z,6.50
2023-04-15T01:58:25.264Z,6.50
2023-04-15T02:00:53.554Z,6.50
2023-04-15T02:03:21.701Z,6.50
2023-04-15T02:05:50.902Z,6.50
2023-04-15T02:08:18.737Z,6.50
2023-04-15T02:10:46.540Z,6.50
2023-04-15T02:13:14.659Z,6.50
2023-04-15T02:15:48.413Z,6.50
2023-04-15T02:18:16.531Z,6.50
2023-04-15T02:20:44.487Z,6.50
2023-04-15T02:23:12.258Z,6.50
2023-04-15T02:25:40.418Z,6.50
2023-04-15T02:28:08.208Z,6.50
2023-04-15T02:30:35.972Z,6.40
2023-04-15T02:33:05.272Z,6.40
2023-04-15T02:35:33.262Z,6.40
2023-04-15T02:38:01.047Z,6.40
2023-04-15T02:40:28.890Z,6.40
2023-04-15T02:42:56.675Z,6.40
2023-04-15T02:45:27.540Z,6.40
2023-04-15T02:47:55.817Z,6.40
2023-04-15T02:50:25.583Z,6.40
2023-04-15T02:52:53.406Z,6.40
2023-04-15T02:55:21.522Z,6.40
2023-04-15T02:57:49.296Z,6.40
2023-04-15T03:00:17.334Z,6.40
2023-04-15T03:02:47.185Z,6.40
2023-04-15T03:05:15.805Z,6.40
2023-04-15T03:07:44.962Z,6.50
2023-04-15T03:10:12.778Z,6.50
2023-04-15T03:12:40.670Z,6.50
2023-04-15T03:15:09.985Z,6.50
2023-04-15T03:17:37.792Z,6.50
2023-04-15T03:20:07.126Z,6.50
2023-04-15T03:22:34.966Z,6.40
2023-04-15T03:25:04.215Z,6.40
2023-04-15T03:27:32.023Z,6.40
2023-04-15T03:29:59.873Z,6.40
2023-04-15T03:32:27.665Z,6.40
2023-04-15T03:34:55.480Z,6.40
2023-04-15T03:37:23.269Z,6.40
2023-04-15T03:39:50.993Z,6.40
2023-04-15T03:42:20.289Z,6.40
2023-04-15T03:44:48.111Z,6.30
2023-04-15T03:47:16.304Z,6.30
2023-04-15T03:49:44.058Z,6.30
2023-04-15T03:52:11.830Z,6.30
2023-04-15T03:54:39.593Z,6.40
2023-04-15T03:57:07.362Z,6.30
2023-04-15T03:59:36.515Z,6.30
2023-04-15T04:02:04.437Z,6.40
2023-04-15T04:04:32.352Z,6.40
2023-04-15T04:07:00.525Z,6.30
2023-04-15T04:09:28.721Z,6.30
2023-04-15T04:11:56.757Z,6.30
2023-04-15T04:14:29.218Z,6.30
2023-04-15T04:16:58.380Z,6.30
2023-04-15T04:19:26.192Z,6.30
2023-04-15T04:21:54.040Z,6.30
2023-04-15T04:24:21.811Z,6.30
2023-04-15T04:26:49.693Z,6.40
2023-04-15T04:29:17.416Z,6.40
2023-04-15T04:31:45.185Z,6.40
2023-04-15T04:34:14.325Z,6.40
2023-04-15T04:36:42.317Z,6.50
2023-04-15T04:39:10.173Z,6.50
2023-04-15T04:41:37.920Z,6.50
2023-04-15T04:44:05.782Z,6.50
2023-04-15T04:46:33.584Z,6.50
2023-04-15T04:49:01.630Z,6.50
2023-04-15T04:51:31.085Z,6.50
2023-04-15T04:53:58.877Z,6.60
2023-04-15T04:56:26.965Z,6.70
2023-04-15T04:58:54.717Z,6.70
2023-04-15T05:01:22.508Z,6.80
2023-04-15T05:03:50.419Z,6.80
2023-04-15T05:06:18.268Z,6.80
2023-04-15T05:08:47.446Z,6.80
2023-04-15T05:11:15.361Z,6.80
2023-04-15T05:13:43.123Z,6.80
2023-04-15T05:16:10.998Z,6.80
2023-04-15T05:18:38.844Z,6.80
2023-04-15T05:21:06.845Z,6.70
2023-04-15T05:23:34.989Z,6.70
2023-04-15T05:26:04.218Z,6.70
2023-04-15T05:28:32.036Z,6.80
2023-04-15T05:30:59.880Z,6.70
2023-04-15T05:33:28.416Z,6.70
2023-04-15T05:35:56.190Z,6.80
2023-04-15T05:38:23.996Z,6.70
2023-04-15T05:40:51.892Z,6.70
2023-04-15T05:43:21.473Z,6.70
2023-04-15T05:45:49.335Z,6.70
2023-04-15T05:48:17.122Z,6.70
2023-04-15T05:50:45.062Z,6.70
2023-04-15T05:53:12.935Z,6.80
2023-04-15T05:55:40.987Z,6.80
2023-04-15T05:58:08.775Z,6.80
2023-04-15T06:00:38.539Z,6.80
2023-04-15T06:03:06.434Z,6.80
2023-04-15T06:05:34.488Z,6.80
2023-04-15T06:08:02.570Z,6.80
2023-04-15T06:10:30.805Z,6.80
2023-04-15T06:12:58.536Z,6.80
2023-04-15T06:15:26.405Z,6.80
2023-04-15T06:17:55.691Z,6.80
2023-04-15T06:20:23.886Z,6.80
2023-04-15T06:22:51.741Z,6.80
2023-04-15T06:25:19.828Z,6.90
2023-04-15T06:27:48.213Z,6.90
2023-04-15T06:30:16.008Z,6.90
2023-04-15T06:32:43.939Z,6.90
2023-04-15T06:35:15.912Z,6.90
2023-04-15T06:37:43.742Z,6.90
2023-04-15T06:40:12.097Z,7.00
2023-04-15T06:42:39.858Z,7.00
2023-04-15T06:45:08.916Z,7.00
2023-04-15T06:47:36.749Z,7.00
2023-04-15T06:50:05.059Z,7.00
2023-04-15T06:52:34.225Z,7.00
2023-04-15T06:55:02.992Z,7.10
2023-04-15T06:57:31.560Z,7.10
2023-04-15T07:00:00.941Z,7.10
2023-04-15T07:02:28.773Z,7.20
2023-04-15T07:04:56.896Z,7.20
2023-04-15T07:07:25.525Z,7.30
2023-04-15T07:09:54.657Z,7.40
2023-04-15T07:12:22.562Z,7.40
2023-04-15T07:14:50.408Z,7.50
2023-04-15T07:17:18.183Z,7.60
2023-04-15T07:19:46.331Z,7.60
2023-04-15T07:22:14.256Z,7.70
2023-04-15T07:24:42.490Z,7.70
2023-04-15T07:27:11.577Z,7.80
2023-04-15T07:29:39.339Z,7.80
2023-04-15T07:32:07.250Z,7.90
2023-04-15T07:34:35.062Z,7.90
2023-04-15T07:37:03.446Z,7.90
2023-04-15T07:39:31.399Z,7.90
2023-04-15T07:41:59.979Z,8.00
2023-04-15T07:44:29.156Z,8.00
2023-04-15T07:46:57.555Z,8.00
2023-04-15T07:49:25.576Z,8.10
2023-04-15T07:51:53.293Z,8.10
2023-04-15T07:54:21.059Z,8.10
2023-04-15T07:56:48.847Z,8.20
2023-04-15T07:59:18.091Z,8.20
2023-04-15T08:01:47.280Z,8.20
2023-04-15T08:04:15.784Z,8.30
2023-04-15T08:06:43.949Z,8.30
2023-04-15T08:09:11.964Z,8.30
2023-04-15T08:11:39.765Z,8.30
2023-04-15T08:14:07.639Z,8.30
2023-04-15T08:16:35.738Z,8.30
2023-04-15T08:19:05.476Z,8.20
2023-04-15T08:21:33.748Z,8.20
2023-04-15T08:24:01.751Z,8.20
2023-04-15T08:26:29.707Z,8.10
2023-04-15T08:28:57.635Z,8.10
2023-04-15T08:31:27.748Z,8.00
2023-04-15T08:33:56.804Z,8.00
2023-04-15T08:36:26.973Z,7.90
2023-04-15T08:38:54.859Z,8.00
2023-04-15T08:41:24.360Z,8.00
2023-04-15T08:43:59.417Z,8.00
2023-04-15T08:46:27.630Z,8.00
2023-04-15T08:48:58.771Z,7.90
2023-04-15T08:51:29.548Z,7.90
2023-04-15T08:53:57.529Z,7.90
2023-04-15T08:56:27.579Z,7.80
2023-04-15T08:58:55.625Z,7.80
2023-04-15T09:01:24.406Z,7.70
2023-04-15T09:03:54.251Z,7.70
2023-04-15T09:06:22.907Z,7.60
2023-04-15T09:08:52.878Z,7.60
2023-04-15T09:11:22.475Z,7.60
2023-04-15T09:13:50.609Z,7.60
2023-04-15T09:16:18.686Z,7.50
2023-04-15T09:18:46.866Z,7.50
2023-04-15T09:21:16.548Z,7.50
2023-04-15T09:23:58.177Z,7.40
2023-04-15T09:26:36.055Z,7.50
2023-04-15T09:29:06.601Z,7.40
2023-04-15T09:31:34.532Z,7.30
2023-04-15T09:34:02.825Z,7.30
2023-04-15T09:36:30.792Z,7.30
2023-04-15T09:39:01.157Z,7.20
2023-04-15T09:41:29.451Z,7.20
2023-04-15T09:43:57.310Z,7.20
2023-04-15T09:46:43.278Z,7.30
2023-04-15T09:49:12.313Z,7.30
2023-04-15T09:51:40.209Z,7.30
2023-04-15T09:54:09.389Z,7.40
2023-04-15T09:56:38.449Z,7.40
2023-04-15T09:59:06.868Z,7.50
2023-04-15T10:01:34.919Z,7.50
2023-04-15T10:04:05.083Z,7.50
2023-04-15T10:06:34.685Z,7.60
2023-04-15T10:09:03.192Z,7.60
2023-04-15T10:11:34.560Z,7.70
2023-04-15T10:14:03.076Z,7.80
2023-04-15T10:16:34.141Z,7.80
2023-04-15T10:19:04.331Z,7.80
2023-04-15T10:21:32.127Z,7.80
2023-04-15T10:24:01.797Z,7.80
2023-04-15T10:26:30.886Z,7.90
2023-04-15T10:29:01.179Z,8.00
2023-04-15T10:31:29.594Z,8.10
2023-04-15T10:33:58.993Z,8.30
2023-04-15T10:36:27.389Z,8.30
2023-04-15T10:38:55.213Z,8.40
2023-04-15T10:41:24.919Z,8.40
2023-04-15T10:43:54.500Z,8.40
2023-04-15T10:46:37.885Z,8.50
2023-04-15T10:49:10.879Z,8.50
2023-04-15T10:51:41.986Z,8.50
2023-04-15T10:54:14.371Z,8.50
2023-04-15T10:56:43.801Z,8.50
2023-04-15T10:59:11.874Z,8.50
2023-04-15T11:01:56.326Z,8.40
2023-04-15T11:04:52.894Z,8.40
2023-04-15T11:07:39.486Z,8.40
2023-04-15T11:10:52.751Z,8.30
2023-04-15T11:13:27.061Z,8.30
2023-04-15T11:15:59.258Z,8.20
2023-04-15T11:18:32.740Z,8.20
2023-04-15T11:21:03.390Z,8.20
2023-04-15T11:23:34.042Z,8.20
2023-04-15T11:26:05.475Z,8.40
2023-04-15T11:28:34.075Z,8.50
2023-04-15T11:31:08.466Z,8.60
2023-04-15T11:33:38.005Z,8.70
2023-04-15T11:36:06.283Z,8.80
2023-04-15T11:38:35.584Z,8.90
2023-04-15T11:41:03.459Z,8.90
2023-04-15T11:43:35.184Z,8.90
2023-04-15T11:46:04.600Z,9.00
2023-04-15T11:48:34.018Z,9.00
2023-04-15T11:51:05.367Z,9.00
2023-04-15T11:53:41.135Z,8.90
2023-04-15T11:56:10.630Z,8.80
2023-04-15T11:58:39.747Z,8.70
2023-04-15T12:01:08.187Z,8.70
2023-04-15T12:03:40.421Z,8.70
2023-04-15T12:06:16.342Z,8.70
2023-04-15T12:09:13.086Z,8.70
2023-04-15T12:11:43.626Z,8.60
2023-04-15T12:14:14.314Z,8.50
2023-04-15T12:16:48.163Z,8.50
2023-04-15T12:19:20.025Z,8.50
2023-04-15T12:21:50.218Z,8.50
2023-04-15T12:24:22.582Z,8.50
2023-04-15T12:26:52.040Z,8.50
2023-04-15T12:29:21.040Z,8.50
2023-04-15T12:31:51.427Z,8.60
2023-04-15T12:34:20.847Z,8.60
2023-04-15T12:36:50.025Z,8.50
2023-04-15T12:39:17.798Z,8.60
2023-04-15T12:41:45.565Z,8.70
2023-04-15T12:44:13.350Z,8.90
2023-04-15T12:46:41.385Z,9.10
2023-04-15T12:49:10.150Z,9.30
2023-04-15T12:51:37.952Z,9.30
2023-04-15T12:54:07.141Z,9.20
2023-04-15T12:56:34.910Z,9.20
2023-04-15T12:59:02.729Z,9.10
2023-04-15T13:01:30.566Z,9.00
2023-04-15T13:03:58.484Z,9.00
2023-04-15T13:06:26.341Z,9.10
2023-04-15T13:08:58.287Z,9.20
2023-04-15T13:11:30.724Z,9.30
2023-04-15T13:13:58.654Z,9.40
2023-04-15T13:16:26.462Z,9.40
2023-04-15T13:18:54.236Z,9.30
2023-04-15T13:21:22.095Z,9.20
2023-04-15T13:23:50.787Z,9.10
2023-04-15T13:26:18.936Z,9.10
2023-04-15T13:28:48.065Z,9.00
2023-04-15T13:31:15.953Z,8.90
2023-04-15T13:33:43.786Z,8.80
2023-04-15T13:36:11.581Z,8.80
2023-04-15T13:38:39.361Z,8.70
2023-04-15T13:41:07.296Z,8.60
2023-04-15T13:43:35.089Z,8.60
2023-04-15T13:46:04.333Z,8.60
2023-04-15T13:48:32.162Z,8.60
2023-04-15T13:50:59.957Z,8.60
2023-04-15T13:53:33.782Z,8.60
2023-04-15T13:56:07.166Z,8.70
2023-04-15T13:58:35.024Z,8.70
2023-04-15T14:01:05.810Z,8.70
2023-04-15T14:03:34.237Z,8.70
2023-04-15T14:06:02.401Z,8.70
2023-04-15T14:08:31.341Z,8.70
2023-04-15T14:10:59.193Z,8.70
2023-04-15T14:13:26.948Z,8.70
2023-04-15T14:15:54.805Z,8.70
2023-04-15T14:18:24.011Z,8.70
2023-04-15T14:20:51.761Z,8.70
2023-04-15T14:23:19.644Z,8.80
2023-04-15T14:25:48.387Z,8.80
2023-04-15T14:28:16.931Z,8.80
2023-04-15T14:30:45.052Z,8.80
2023-04-15T14:33:12.976Z,8.70
2023-04-15T14:35:42.100Z,8.70
2023-04-15T14:38:11.083Z,8.70
2023-04-15T14:40:39.433Z,8.70
2023-04-15T14:43:07.260Z,8.70
2023-04-15T14:45:36.239Z,8.70
2023-04-15T14:48:04.448Z,8.70
2023-04-15T14:50:32.304Z,8.70
2023-04-15T14:53:01.490Z,8.70
2023-04-15T14:55:29.292Z,8.70
2023-04-15T14:57:57.100Z,8.80
2023-04-15T15:00:24.973Z,8.80
2023-04-15T15:02:52.849Z,8.80
2023-04-15T15:05:20.813Z,8.80
2023-04-15T15:07:48.742Z,8.80
2023-04-15T15:10:17.856Z,8.70
2023-04-15T15:13:06.631Z,8.70
2023-04-15T15:15:34.591Z,8.60
2023-04-15T15:18:02.987Z,8.60
2023-04-15T15:20:32.830Z,8.60
2023-04-15T15:23:00.717Z,8.60
2023-04-15T15:25:29.952Z,8.60
2023-04-15T15:27:58.682Z,8.60
2023-04-15T15:30:26.646Z,8.60
2023-04-15T15:32:54.478Z,8.60
2023-04-15T15:35:23.554Z,8.50
2023-04-15T15:37:51.418Z,8.50
2023-04-15T15:40:19.168Z,8.50
2023-04-15T15:42:49.842Z,8.50
2023-04-15T15:45:18.137Z,8.50
2023-04-15T15:47:46.183Z,8.50
2023-04-15T15:50:14.720Z,8.50
2023-04-15T15:52:42.465Z,8.50
2023-04-15T15:55:10.505Z,8.60
2023-04-15T15:57:38.324Z,8.60
2023-04-15T16:00:11.910Z,8.60
2023-04-15T16:03:05.171Z,8.60
2023-04-15T16:05:28.445Z,8.50
2023-04-15T16:07:56.254Z,8.50
2023-04-15T16:10:24.097Z,8.50
2023-04-15T16:12:51.879Z,8.50
2023-04-15T16:15:21.289Z,8.50
2023-04-15T16:17:49.106Z,8.50
2023-04-15T16:20:17.109Z,8.50
2023-04-15T16:22:44.986Z,8.50
2023-04-15T16:25:12.852Z,8.60
2023-04-15T16:27:57.103Z,8.60
2023-04-15T16:30:29.993Z,8.50
2023-04-15T16:32:58.363Z,8.50
2023-04-15T16:35:26.174Z,8.50
2023-04-15T16:37:53.986Z,8.50
2023-04-15T16:40:21.766Z,8.40
2023-04-15T16:42:50.609Z,8.40
2023-04-15T16:45:18.525Z,8.50
2023-04-15T16:47:47.633Z,8.40
2023-04-15T16:50:15.706Z,8.40
2023-04-15T16:52:43.544Z,8.50
2023-04-15T16:55:11.383Z,8.50
2023-04-15T16:58:01.485Z,8.40
2023-04-15T17:00:27.036Z,8.50
2023-04-15T17:02:56.540Z,8.50
2023-04-15T17:05:24.563Z,8.40
2023-04-15T17:07:52.332Z,8.50
2023-04-15T17:10:20.204Z,8.40
2023-04-15T17:12:47.968Z,8.50
2023-04-15T17:15:15.802Z,8.40
2023-04-15T17:17:43.564Z,8.40
2023-04-15T17:20:13.129Z,8.40
2023-04-15T17:22:40.971Z,8.40
2023-04-15T17:25:09.550Z,8.40
2023-04-15T17:27:38.533Z,8.40
2023-04-15T17:30:07.496Z,8.30
2023-04-15T17:32:35.483Z,8.30
2023-04-15T17:35:06.178Z,8.30
2023-04-15T17:37:35.667Z,8.30
2023-04-15T17:40:04.351Z,8.30
2023-04-15T17:42:33.155Z,8.30
2023-04-15T17:45:00.996Z,8.20
2023-04-15T17:47:28.974Z,8.20
2023-04-15T17:49:56.774Z,8.20
2023-04-15T17:52:24.546Z,8.20
2023-04-15T17:54:53.689Z,8.20
2023-04-15T17:57:21.484Z,8.20
2023-04-15T17:59:49.453Z,8.20
2023-04-15T18:02:17.448Z,8.20
2023-04-15T18:04:45.366Z,8.20
2023-04-15T18:07:13.225Z,8.20
2023-04-15T18:09:41.407Z,8.20
2023-04-15T18:12:10.745Z,8.20
2023-04-15T18:14:38.522Z,8.20
2023-04-15T18:17:06.454Z,8.20
2023-04-15T18:19:34.332Z,8.20
2023-04-15T18:22:03.101Z,8.20
2023-04-15T18:24:31.480Z,8.30
2023-04-15T18:26:59.915Z,8.30
2023-04-15T18:29:30.763Z,8.30
2023-04-15T18:31:59.886Z,8.20
2023-04-15T18:34:27.711Z,8.30
2023-04-15T18:36:56.864Z,8.30
2023-04-15T18:39:24.649Z,8.30
2023-04-15T18:41:52.404Z,8.20
2023-04-15T18:44:20.360Z,8.30
2023-04-15T18:46:49.813Z,8.30
2023-04-15T18:49:17.585Z,8.30
2023-04-15T18:51:45.439Z,8.30
2023-04-15T18:54:13.245Z,8.30
2023-04-15T18:56:41.430Z,8.30
2023-04-15T18:59:28.526Z,8.30
2023-04-15T19:01:58.822Z,8.30
2023-04-15T19:04:28.675Z,8.30
2023-04-15T19:06:57.207Z,8.20
2023-04-15T19:09:25.138Z,8.20
2023-04-15T19:11:52.914Z,8.20
2023-04-15T19:14:20.697Z,8.20
2023-04-15T19:16:48.564Z,8.20
2023-04-15T19:19:17.833Z,8.20
2023-04-15T19:21:47.395Z,8.20
2023-04-15T19:24:15.278Z,8.20
2023-04-15T19:26:43.125Z,8.20
2023-04-15T19:29:10.927Z,8.20
2023-04-15T19:31:38.756Z,8.20
2023-04-15T19:34:06.608Z,8.20
2023-04-15T19:36:35.692Z,8.20
2023-04-15T19:39:04.140Z,8.20
2023-04-15T19:41:32.136Z,8.10
2023-04-15T19:43:59.966Z,8.20
2023-04-15T19:46:28.137Z,8.10
2023-04-15T19:48:56.202Z,8.10
2023-04-15T19:51:24.000Z,8.10
2023-04-15T19:53:53.842Z,8.10
2023-04-15T19:56:23.672Z,8.10
2023-04-15T19:58:52.907Z,8.20
2023-04-15T20:01:21.260Z,8.10
2023-04-15T20:03:49.561Z,8.10
2023-04-15T20:06:17.406Z,8.10
2023-04-15T20:08:45.365Z,8.10
2023-04-15T20:11:15.289Z,8.10
2023-04-15T20:13:43.117Z,8.10
2023-04-15T20:16:12.199Z,8.10
2023-04-15T20:18:39.985Z,8.10
2023-04-15T20:21:07.799Z,8.10
2023-04-15T20:23:35.876Z,8.10
2023-04-15T20:26:03.617Z,8.10
2023-04-15T20:28:32.740Z,8.10
2023-04-15T20:31:01.723Z,8.00
2023-04-15T20:33:29.604Z,8.10
2023-04-15T20:35:57.390Z,8.10
2023-04-15T20:38:25.130Z,8.10
2023-04-15T20:40:52.889Z,8.00
2023-04-15T20:43:21.366Z,8.00
2023-04-15T20:45:53.859Z,8.00
2023-04-15T20:48:22.633Z,8.10
2023-04-15T20:50:50.488Z,8.10
2023-04-15T20:53:18.798Z,8.10
2023-04-15T20:55:46.585Z,8.00
2023-04-15T20:58:14.417Z,8.00
2023-04-15T21:00:42.238Z,8.00
2023-04-15T21:03:11.747Z,8.00
2023-04-15T21:05:39.722Z,8.10
2023-04-15T21:08:07.917Z,8.10
2023-04-15T21:10:36.122Z,8.10
2023-04-15T21:13:03.980Z,8.00
2023-04-15T21:15:31.746Z,8.10
2023-04-15T21:17:59.572Z,8.10
2023-04-15T21:20:28.839Z,8.10
2023-04-15T21:22:56.600Z,8.10
2023-04-15T21:25:24.423Z,8.10
2023-04-15T21:27:52.184Z,8.10
2023-04-15T21:30:20.253Z,8.00
2023-04-15T21:32:48.055Z,8.00
2023-04-15T21:35:15.878Z,8.00
2023-04-15T21:37:45.129Z,8.00
2023-04-15T21:40:14.625Z,8.00
2023-04-15T21:42:42.597Z,8.00
2023-04-15T21:45:11.177Z,8.00
2023-04-15T21:48:00.415Z,8.00
2023-04-15T21:50:27.178Z,8.00
2023-04-15T21:52:56.375Z,8.00
2023-04-15T21:55:24.348Z,8.00
2023-04-15T21:57:52.126Z,8.00
2023-04-15T22:00:21.139Z,8.00
2023-04-15T22:02:49.062Z,8.00
2023-04-15T22:05:17.379Z,8.00
2023-04-15T22:07:45.409Z,8.00
2023-04-15T22:10:14.577Z,8.00
2023-04-15T22:12:42.572Z,8.00
2023-04-15T22:15:10.826Z,8.00
2023-04-15T22:17:38.613Z,8.00
2023-04-15T22:20:07.468Z,8.00
2023-04-15T22:22:43.933Z,8.00
2023-04-15T22:25:13.912Z,8.00
2023-04-15T22:27:41.707Z,8.00
2023-04-15T22:30:10.900Z,8.10
2023-04-15T22:32:38.768Z,8.00
2023-04-15T22:35:07.083Z,8.00
2023-04-15T22:37:34.913Z,8.00
2023-04-15T22:40:03.022Z,8.00
2023-04-15T22:42:32.114Z,8.00
2023-04-15T22:44:59.866Z,8.10
2023-04-15T22:47:27.787Z,8.10
2023-04-15T22:49:55.595Z,8.10
2023-04-15T22:52:29.854Z,8.10
2023-04-15T22:54:58.692Z,8.10
2023-04-15T22:57:27.684Z,8.00
2023-04-15T22:59:56.876Z,8.00
2023-04-15T23:02:24.844Z,8.00
2023-04-15T23:04:52.785Z,8.10
2023-04-15T23:07:20.763Z,8.00
2023-04-15T23:09:48.514Z,8.00
2023-04-15T23:12:16.274Z,8.00
2023-04-15T23:14:44.018Z,8.00
2023-04-15T23:17:13.146Z,8.00
2023-04-15T23:19:41.041Z,8.10
2023-04-15T23:22:10.437Z,8.00
2023-04-15T23:24:38.327Z,8.10
2023-04-15T23:27:06.102Z,8.10
2023-04-15T23:29:33.846Z,8.10
2023-04-15T23:32:01.722Z,8.10
2023-04-15T23:34:30.945Z,8.10
2023-04-15T23:36:58.710Z,8.10
2023-04-15T23:39:26.535Z,8.10
2023-04-15T23:41:54.392Z,8.10
2023-04-15T23:44:22.227Z,8.10
2023-04-15T23:46:51.120Z,8.10
2023-04-15T23:49:20.379Z,8.10
2023-04-15T23:51:49.719Z,8.00
2023-04-15T23:54:17.518Z,8.00
2023-04-15T23:56:46.032Z,8.10
2023-04-15T23:59:13.848Z,8.00
